sensor_id;sensor_type;location;lat;lon;timestamp;temperature;humidity
21104;DHT22;10710;53.398;-1.514;2024-03-23T00:54:14;6.40;99.90
21104;DHT22;10710;53.398;-1.514;2024-03-23T00:56:58;6.30;99.90
21104;DHT22;10710;53.398;-1.514;2024-03-23T00:59:43;6.50;99.90
21104;DHT22;10710;53.398;-1.514;2024-03-23T01:02:27;6.40;99.90
21104;DHT22;10710;53.398;-1.514;2024-03-23T01:05:11;6.60;99.90
21104;DHT22;10710;53.398;-1.514;2024-03-23T01:10:40;6.60;99.90
21104;DHT22;10710;53.398;-1.514;2024-03-23T01:13:32;6.40;99.90
21104;DHT22;10710;53.398;-1.514;2024-03-23T01:16:16;6.60;99.90
21104;DHT22;10710;53.398;-1.514;2024-03-23T01:19:01;6.70;99.90
21104;DHT22;10710;53.398;-1.514;2024-03-23T01:21:53;6.60;99.90
21104;DHT22;10710;53.398;-1.514;2024-03-23T01:24:37;6.70;99.90
21104;DHT22;10710;53.398;-1.514;2024-03-23T01:30:08;6.50;99.90
21104;DHT22;10710;53.398;-1.514;2024-03-23T01:38:25;6.50;99.90
21104;DHT22;10710;53.398;-1.514;2024-03-23T01:41:09;6.50;99.90
21104;DHT22;10710;53.398;-1.514;2024-03-23T01:43:55;6.70;99.90
21104;DHT22;10710;53.398;-1.514;2024-03-23T01:49:26;6.70;99.90
21104;DHT22;10710;53.398;-1.514;2024-03-23T01:52:10;6.60;99.90
21104;DHT22;10710;53.398;-1.514;2024-03-23T01:54:54;6.60;99.90
21104;DHT22;10710;53.398;-1.514;2024-03-23T01:57:38;6.50;99.90
21104;DHT22;10710;53.398;-1.514;2024-03-23T02:00:23;6.60;99.90
21104;DHT22;10710;53.398;-1.514;2024-03-23T02:03:26;6.60;99.90
21104;DHT22;10710;53.398;-1.514;2024-03-23T02:06:10;6.50;99.90
21104;DHT22;10710;53.398;-1.514;2024-03-23T02:08:55;6.70;99.90
21104;DHT22;10710;53.398;-1.514;2024-03-23T02:11:39;6.60;99.90
21104;DHT22;10710;53.398;-1.514;2024-03-23T02:14:23;6.70;99.90
21104;DHT22;10710;53.398;-1.514;2024-03-23T02:17:09;6.50;99.90
21104;DHT22;10710;53.398;-1.514;2024-03-23T02:22:39;6.50;99.90
21104;DHT22;10710;53.398;-1.514;2024-03-23T02:25:23;6.70;99.90
21104;DHT22;10710;53.398;-1.514;2024-03-23T02:28:07;6.70;99.90
21104;DHT22;10710;53.398;-1.514;2024-03-23T02:41:51;6.70;99.90
21104;DHT22;10710;53.398;-1.514;2024-03-23T02:47:19;6.60;99.90
21104;DHT22;10710;53.398;-1.514;2024-03-23T02:58:18;6.40;99.90
21104;DHT22;10710;53.398;-1.514;2024-03-23T03:06:32;6.00;99.90
21104;DHT22;10710;53.398;-1.514;2024-03-23T03:09:17;6.10;99.90
21104;DHT22;10710;53.398;-1.514;2024-03-23T03:12:06;6.00;99.90
21104;DHT22;10710;53.398;-1.514;2024-03-23T03:14:51;5.90;99.90
21104;DHT22;10710;53.398;-1.514;2024-03-23T03:23:06;6.20;99.90
21104;DHT22;10710;53.398;-1.514;2024-03-23T03:25:51;6.40;99.90
21104;DHT22;10710;53.398;-1.514;2024-03-23T03:34:06;6.30;99.90
21104;DHT22;10710;53.398;-1.514;2024-03-23T03:42:19;6.50;99.90
21104;DHT22;10710;53.398;-1.514;2024-03-23T03:50:34;6.30;99.90
21104;DHT22;10710;53.398;-1.514;2024-03-23T03:53:19;6.30;99.90
21104;DHT22;10710;53.398;-1.514;2024-03-23T04:04:16;6.40;99.90
21104;DHT22;10710;53.398;-1.514;2024-03-23T04:07:02;6.20;99.90
21104;DHT22;10710;53.398;-1.514;2024-03-23T04:18:00;6.10;99.90
21104;DHT22;10710;53.398;-1.514;2024-03-23T04:26:15;6.00;99.90
21104;DHT22;10710;53.398;-1.514;2024-03-23T04:31:45;6.10;99.90
21104;DHT22;10710;53.398;-1.514;2024-03-23T04:34:29;6.10;99.90
21104;DHT22;10710;53.398;-1.514;2024-03-23T04:45:29;5.70;99.90
21104;DHT22;10710;53.398;-1.514;2024-03-23T04:48:13;5.70;99.90
21104;DHT22;10710;53.398;-1.514;2024-03-23T04:50:58;5.90;99.90
21104;DHT22;10710;53.398;-1.514;2024-03-23T04:53:42;5.80;99.90
21104;DHT22;10710;53.398;-1.514;2024-03-23T04:56:26;5.90;99.90
21104;DHT22;10710;53.398;-1.514;2024-03-23T04:59:10;5.60;99.90
21104;DHT22;10710;53.398;-1.514;2024-03-23T05:01:55;5.90;99.90
21104;DHT22;10710;53.398;-1.514;2024-03-23T05:04:39;5.50;99.90
21104;DHT22;10710;53.398;-1.514;2024-03-23T05:07:27;5.90;99.90
21104;DHT22;10710;53.398;-1.514;2024-03-23T05:10:11;5.80;99.90
21104;DHT22;10710;53.398;-1.514;2024-03-23T05:12:57;5.70;99.90
21104;DHT22;10710;53.398;-1.514;2024-03-23T05:15:41;5.60;99.90
21104;DHT22;10710;53.398;-1.514;2024-03-23T05:18:25;6.00;99.90
21104;DHT22;10710;53.398;-1.514;2024-03-23T05:21:11;5.70;99.90
21104;DHT22;10710;53.398;-1.514;2024-03-23T05:23:55;5.70;99.90
21104;DHT22;10710;53.398;-1.514;2024-03-23T05:26:39;5.80;99.90
21104;DHT22;10710;53.398;-1.514;2024-03-23T05:29:23;5.70;99.90
21104;DHT22;10710;53.398;-1.514;2024-03-23T05:32:08;5.70;99.90
21104;DHT22;10710;53.398;-1.514;2024-03-23T05:34:52;5.60;99.90
21104;DHT22;10710;53.398;-1.514;2024-03-23T05:37:39;5.90;99.90
21104;DHT22;10710;53.398;-1.514;2024-03-23T05:40:24;5.80;99.90
21104;DHT22;10710;53.398;-1.514;2024-03-23T05:43:08;5.70;99.90
21104;DHT22;10710;53.398;-1.514;2024-03-23T05:45:57;5.60;99.90
21104;DHT22;10710;53.398;-1.514;2024-03-23T05:48:42;5.80;99.90
21104;DHT22;10710;53.398;-1.514;2024-03-23T05:51:26;5.40;99.90
21104;DHT22;10710;53.398;-1.514;2024-03-23T05:59:39;5.70;99.90
21104;DHT22;10710;53.398;-1.514;2024-03-23T06:02:24;5.70;99.90
21104;DHT22;10710;53.398;-1.514;2024-03-23T06:05:08;5.80;99.90
21104;DHT22;10710;53.398;-1.514;2024-03-23T06:07:52;5.60;99.90
21104;DHT22;10710;53.398;-1.514;2024-03-23T06:10:37;5.70;99.90
21104;DHT22;10710;53.398;-1.514;2024-03-23T06:16:13;6.60;99.90
21104;DHT22;10710;53.398;-1.514;2024-03-23T06:18:58;5.70;99.90
21104;DHT22;10710;53.398;-1.514;2024-03-23T06:21:44;5.60;99.90
21104;DHT22;10710;53.398;-1.514;2024-03-23T06:24:28;5.60;99.90
21104;DHT22;10710;53.398;-1.514;2024-03-23T06:27:12;5.70;99.90
21104;DHT22;10710;53.398;-1.514;2024-03-23T06:32:41;5.60;99.90
21104;DHT22;10710;53.398;-1.514;2024-03-23T06:35:25;5.70;99.90
21104;DHT22;10710;53.398;-1.514;2024-03-23T06:40:54;5.70;99.90
21104;DHT22;10710;53.398;-1.514;2024-03-23T06:43:38;5.60;99.90
21104;DHT22;10710;53.398;-1.514;2024-03-23T06:46:22;5.30;99.90
21104;DHT22;10710;53.398;-1.514;2024-03-23T06:49:06;6.20;99.90
21104;DHT22;10710;53.398;-1.514;2024-03-23T06:51:51;5.50;99.90
21104;DHT22;10710;53.398;-1.514;2024-03-23T06:54:35;5.80;99.90
21104;DHT22;10710;53.398;-1.514;2024-03-23T06:57:20;5.90;99.90
21104;DHT22;10710;53.398;-1.514;2024-03-23T07:00:04;5.80;99.90
21104;DHT22;10710;53.398;-1.514;2024-03-23T07:02:50;5.70;99.90
21104;DHT22;10710;53.398;-1.514;2024-03-23T07:08:18;6.00;99.90
21104;DHT22;10710;53.398;-1.514;2024-03-23T07:16:36;6.00;99.90
21104;DHT22;10710;53.398;-1.514;2024-03-23T07:19:20;6.10;99.90
21104;DHT22;10710;53.398;-1.514;2024-03-23T07:22:04;6.10;99.90
21104;DHT22;10710;53.398;-1.514;2024-03-23T07:24:48;6.20;99.90
21104;DHT22;10710;53.398;-1.514;2024-03-23T07:27:33;5.90;99.90
21104;DHT22;10710;53.398;-1.514;2024-03-23T07:33:02;5.90;99.90
21104;DHT22;10710;53.398;-1.514;2024-03-23T07:35:46;5.90;99.90
21104;DHT22;10710;53.398;-1.514;2024-03-23T07:38:30;5.90;99.90
21104;DHT22;10710;53.398;-1.514;2024-03-23T07:41:19;6.10;99.90
21104;DHT22;10710;53.398;-1.514;2024-03-23T07:44:04;6.30;99.90
21104;DHT22;10710;53.398;-1.514;2024-03-23T07:46:48;6.10;99.90
21104;DHT22;10710;53.398;-1.514;2024-03-23T07:49:32;5.40;99.90
21104;DHT22;10710;53.398;-1.514;2024-03-23T07:52:16;5.70;99.90
21104;DHT22;10710;53.398;-1.514;2024-03-23T07:57:46;5.80;99.90
21104;DHT22;10710;53.398;-1.514;2024-03-23T08:00:30;5.80;99.90
21104;DHT22;10710;53.398;-1.514;2024-03-23T08:03:14;5.60;99.90
21104;DHT22;10710;53.398;-1.514;2024-03-23T08:06:16;5.80;99.90
21104;DHT22;10710;53.398;-1.514;2024-03-23T08:09:00;5.90;99.90
21104;DHT22;10710;53.398;-1.514;2024-03-23T08:11:44;6.20;99.90
21104;DHT22;10710;53.398;-1.514;2024-03-23T08:14:30;6.00;99.90
21104;DHT22;10710;53.398;-1.514;2024-03-23T08:17:15;6.30;99.90
21104;DHT22;10710;53.398;-1.514;2024-03-23T08:19:59;6.10;99.90
21104;DHT22;10710;53.398;-1.514;2024-03-23T08:22:43;6.00;99.90
21104;DHT22;10710;53.398;-1.514;2024-03-23T08:25:27;6.10;99.90
21104;DHT22;10710;53.398;-1.514;2024-03-23T08:28:11;6.30;99.90
21104;DHT22;10710;53.398;-1.514;2024-03-23T08:30:56;6.50;99.90
21104;DHT22;10710;53.398;-1.514;2024-03-23T08:33:41;6.40;99.90
21104;DHT22;10710;53.398;-1.514;2024-03-23T08:36:27;6.70;99.90
21104;DHT22;10710;53.398;-1.514;2024-03-23T08:39:12;6.70;99.90
21104;DHT22;10710;53.398;-1.514;2024-03-23T08:41:56;6.60;99.90
21104;DHT22;10710;53.398;-1.514;2024-03-23T08:44:40;6.60;99.90
21104;DHT22;10710;53.398;-1.514;2024-03-23T08:47:27;6.70;99.90
21104;DHT22;10710;53.398;-1.514;2024-03-23T08:50:11;6.70;99.90
21104;DHT22;10710;53.398;-1.514;2024-03-23T08:52:55;6.90;99.90
21104;DHT22;10710;53.398;-1.514;2024-03-23T08:55:39;6.70;99.90
21104;DHT22;10710;53.398;-1.514;2024-03-23T08:58:25;6.70;99.90
21104;DHT22;10710;53.398;-1.514;2024-03-23T09:01:11;6.60;99.90
21104;DHT22;10710;53.398;-1.514;2024-03-23T09:03:59;6.80;99.90
21104;DHT22;10710;53.398;-1.514;2024-03-23T09:06:43;6.80;99.90
21104;DHT22;10710;53.398;-1.514;2024-03-23T09:09:27;6.90;99.90
21104;DHT22;10710;53.398;-1.514;2024-03-23T09:12:11;6.90;99.90
21104;DHT22;10710;53.398;-1.514;2024-03-23T09:14:56;7.10;99.90
21104;DHT22;10710;53.398;-1.514;2024-03-23T09:17:40;7.20;99.90
21104;DHT22;10710;53.398;-1.514;2024-03-23T09:20:24;7.30;99.90
21104;DHT22;10710;53.398;-1.514;2024-03-23T09:23:08;7.20;99.90
21104;DHT22;10710;53.398;-1.514;2024-03-23T09:25:53;7.10;99.90
21104;DHT22;10710;53.398;-1.514;2024-03-23T09:28:37;7.20;99.90
21104;DHT22;10710;53.398;-1.514;2024-03-23T09:31:21;7.10;99.90
21104;DHT22;10710;53.398;-1.514;2024-03-23T09:34:06;7.20;99.90
21104;DHT22;10710;53.398;-1.514;2024-03-23T09:36:51;7.20;99.90
21104;DHT22;10710;53.398;-1.514;2024-03-23T09:39:36;7.70;99.90
21104;DHT22;10710;53.398;-1.514;2024-03-23T09:42:20;7.00;99.90
21104;DHT22;10710;53.398;-1.514;2024-03-23T09:45:06;6.40;99.90
21104;DHT22;10710;53.398;-1.514;2024-03-23T09:47:54;5.90;99.90
21104;DHT22;10710;53.398;-1.514;2024-03-23T09:50:40;6.30;99.90
21104;DHT22;10710;53.398;-1.514;2024-03-23T09:53:25;5.80;99.90
21104;DHT22;10710;53.398;-1.514;2024-03-23T09:56:10;5.90;99.90
21104;DHT22;10710;53.398;-1.514;2024-03-23T09:59:01;6.30;99.90
21104;DHT22;10710;53.398;-1.514;2024-03-23T10:01:47;6.20;99.90
21104;DHT22;10710;53.398;-1.514;2024-03-23T10:04:38;6.60;99.90
21104;DHT22;10710;53.398;-1.514;2024-03-23T10:07:23;6.60;99.90
21104;DHT22;10710;53.398;-1.514;2024-03-23T10:10:15;6.80;99.90
21104;DHT22;10710;53.398;-1.514;2024-03-23T10:13:00;7.00;99.90
21104;DHT22;10710;53.398;-1.514;2024-03-23T10:15:44;7.40;99.90
21104;DHT22;10710;53.398;-1.514;2024-03-23T10:18:29;7.50;99.90
21104;DHT22;10710;53.398;-1.514;2024-03-23T10:21:15;7.50;99.90
21104;DHT22;10710;53.398;-1.514;2024-03-23T10:24:08;7.50;99.90
21104;DHT22;10710;53.398;-1.514;2024-03-23T10:26:56;7.40;99.90
21104;DHT22;10710;53.398;-1.514;2024-03-23T10:29:41;7.70;99.90
21104;DHT22;10710;53.398;-1.514;2024-03-23T10:32:25;7.30;99.90
21104;DHT22;10710;53.398;-1.514;2024-03-23T10:35:18;7.00;99.90
21104;DHT22;10710;53.398;-1.514;2024-03-23T10:38:07;6.90;99.90
21104;DHT22;10710;53.398;-1.514;2024-03-23T10:40:51;7.10;99.90
21104;DHT22;10710;53.398;-1.514;2024-03-23T10:43:36;6.90;99.90
21104;DHT22;10710;53.398;-1.514;2024-03-23T10:46:21;6.70;99.90
21104;DHT22;10710;53.398;-1.514;2024-03-23T10:49:05;6.70;99.90
21104;DHT22;10710;53.398;-1.514;2024-03-23T10:51:50;6.30;99.90
21104;DHT22;10710;53.398;-1.514;2024-03-23T10:54:35;6.30;99.90
21104;DHT22;10710;53.398;-1.514;2024-03-23T10:57:25;5.90;99.90
21104;DHT22;10710;53.398;-1.514;2024-03-23T11:00:12;5.70;99.90
21104;DHT22;10710;53.398;-1.514;2024-03-23T11:02:56;5.80;99.90
21104;DHT22;10710;53.398;-1.514;2024-03-23T11:05:46;5.80;99.90
21104;DHT22;10710;53.398;-1.514;2024-03-23T11:08:32;5.90;99.90
21104;DHT22;10710;53.398;-1.514;2024-03-23T11:11:20;6.10;99.90
21104;DHT22;10710;53.398;-1.514;2024-03-23T11:14:21;6.00;99.90
21104;DHT22;10710;53.398;-1.514;2024-03-23T11:17:11;6.30;99.90
21104;DHT22;10710;53.398;-1.514;2024-03-23T11:20:03;6.60;99.90
21104;DHT22;10710;53.398;-1.514;2024-03-23T11:22:49;6.80;99.90
21104;DHT22;10710;53.398;-1.514;2024-03-23T11:25:36;7.20;99.90
21104;DHT22;10710;53.398;-1.514;2024-03-23T11:28:20;7.10;99.90
21104;DHT22;10710;53.398;-1.514;2024-03-23T11:31:09;7.00;99.90
21104;DHT22;10710;53.398;-1.514;2024-03-23T11:34:05;7.10;99.90
21104;DHT22;10710;53.398;-1.514;2024-03-23T11:36:50;7.00;99.90
21104;DHT22;10710;53.398;-1.514;2024-03-23T11:39:46;7.40;99.90
21104;DHT22;10710;53.398;-1.514;2024-03-23T11:42:32;7.10;99.90
21104;DHT22;10710;53.398;-1.514;2024-03-23T11:45:18;7.00;99.90
21104;DHT22;10710;53.398;-1.514;2024-03-23T11:50:54;6.90;99.90
21104;DHT22;10710;53.398;-1.514;2024-03-23T11:53:39;7.20;99.90
21104;DHT22;10710;53.398;-1.514;2024-03-23T11:56:24;7.20;99.90
21104;DHT22;10710;53.398;-1.514;2024-03-23T11:59:08;7.00;99.90
21104;DHT22;10710;53.398;-1.514;2024-03-23T12:01:52;7.30;99.90
21104;DHT22;10710;53.398;-1.514;2024-03-23T12:04:38;7.40;99.90
21104;DHT22;10710;53.398;-1.514;2024-03-23T12:07:22;7.30;99.90
21104;DHT22;10710;53.398;-1.514;2024-03-23T12:10:06;7.60;99.90
21104;DHT22;10710;53.398;-1.514;2024-03-23T12:13:01;7.50;99.90
21104;DHT22;10710;53.398;-1.514;2024-03-23T12:15:46;7.70;99.90
21104;DHT22;10710;53.398;-1.514;2024-03-23T12:18:31;7.70;99.90
21104;DHT22;10710;53.398;-1.514;2024-03-23T12:21:15;7.90;99.90
21104;DHT22;10710;53.398;-1.514;2024-03-23T12:24:00;8.10;99.90
21104;DHT22;10710;53.398;-1.514;2024-03-23T12:26:44;8.20;99.90
21104;DHT22;10710;53.398;-1.514;2024-03-23T12:29:30;7.90;99.90
21104;DHT22;10710;53.398;-1.514;2024-03-23T12:32:15;7.70;99.90
21104;DHT22;10710;53.398;-1.514;2024-03-23T12:35:00;7.70;99.90
21104;DHT22;10710;53.398;-1.514;2024-03-23T12:37:44;7.60;99.90
21104;DHT22;10710;53.398;-1.514;2024-03-23T12:40:28;7.90;99.90
21104;DHT22;10710;53.398;-1.514;2024-03-23T12:43:12;7.70;99.90
21104;DHT22;10710;53.398;-1.514;2024-03-23T12:45:56;7.70;99.90
21104;DHT22;10710;53.398;-1.514;2024-03-23T12:48:41;8.00;99.90
21104;DHT22;10710;53.398;-1.514;2024-03-23T12:51:26;8.00;99.90
21104;DHT22;10710;53.398;-1.514;2024-03-23T12:54:10;7.80;99.90
21104;DHT22;10710;53.398;-1.514;2024-03-23T12:56:54;7.90;99.90
21104;DHT22;10710;53.398;-1.514;2024-03-23T12:59:40;8.00;99.90
21104;DHT22;10710;53.398;-1.514;2024-03-23T13:02:24;8.00;99.90
21104;DHT22;10710;53.398;-1.514;2024-03-23T13:05:09;8.20;99.90
21104;DHT22;10710;53.398;-1.514;2024-03-23T13:07:55;8.20;99.90
21104;DHT22;10710;53.398;-1.514;2024-03-23T13:10:40;8.40;99.90
21104;DHT22;10710;53.398;-1.514;2024-03-23T13:13:25;8.20;99.90
21104;DHT22;10710;53.398;-1.514;2024-03-23T13:16:09;8.40;99.90
21104;DHT22;10710;53.398;-1.514;2024-03-23T13:18:53;8.50;99.90
21104;DHT22;10710;53.398;-1.514;2024-03-23T13:21:37;8.50;99.90
21104;DHT22;10710;53.398;-1.514;2024-03-23T13:24:22;8.40;99.90
21104;DHT22;10710;53.398;-1.514;2024-03-23T13:27:08;8.50;99.90
21104;DHT22;10710;53.398;-1.514;2024-03-23T13:29:54;8.70;99.90
21104;DHT22;10710;53.398;-1.514;2024-03-23T13:32:39;8.40;99.90
21104;DHT22;10710;53.398;-1.514;2024-03-23T13:35:23;8.40;99.90
21104;DHT22;10710;53.398;-1.514;2024-03-23T13:38:07;8.20;99.90
21104;DHT22;10710;53.398;-1.514;2024-03-23T13:40:56;8.60;99.90
21104;DHT22;10710;53.398;-1.514;2024-03-23T13:43:41;8.70;99.90
21104;DHT22;10710;53.398;-1.514;2024-03-23T13:46:25;8.80;99.90
21104;DHT22;10710;53.398;-1.514;2024-03-23T13:49:25;9.00;99.90
21104;DHT22;10710;53.398;-1.514;2024-03-23T13:52:10;9.00;99.90
21104;DHT22;10710;53.398;-1.514;2024-03-23T13:54:55;9.10;99.90
21104;DHT22;10710;53.398;-1.514;2024-03-23T13:57:41;9.00;99.90
21104;DHT22;10710;53.398;-1.514;2024-03-23T14:00:25;8.90;99.90
21104;DHT22;10710;53.398;-1.514;2024-03-23T14:03:10;8.90;99.90
21104;DHT22;10710;53.398;-1.514;2024-03-23T14:05:58;9.00;99.90
21104;DHT22;10710;53.398;-1.514;2024-03-23T14:08:42;8.80;99.90
21104;DHT22;10710;53.398;-1.514;2024-03-23T14:11:27;8.50;99.90
21104;DHT22;10710;53.398;-1.514;2024-03-23T14:14:12;8.70;99.90
21104;DHT22;10710;53.398;-1.514;2024-03-23T14:16:56;9.10;99.90
21104;DHT22;10710;53.398;-1.514;2024-03-23T14:19:40;9.20;99.90
21104;DHT22;10710;53.398;-1.514;2024-03-23T14:22:24;9.30;99.90
21104;DHT22;10710;53.398;-1.514;2024-03-23T14:25:10;9.60;99.90
21104;DHT22;10710;53.398;-1.514;2024-03-23T14:27:54;9.30;99.90
21104;DHT22;10710;53.398;-1.514;2024-03-23T14:30:38;9.20;99.90
21104;DHT22;10710;53.398;-1.514;2024-03-23T14:33:23;9.30;99.90
21104;DHT22;10710;53.398;-1.514;2024-03-23T14:36:08;9.20;99.90
21104;DHT22;10710;53.398;-1.514;2024-03-23T14:38:52;9.40;99.90
21104;DHT22;10710;53.398;-1.514;2024-03-23T14:41:37;9.40;99.90
21104;DHT22;10710;53.398;-1.514;2024-03-23T14:44:21;9.50;99.90
21104;DHT22;10710;53.398;-1.514;2024-03-23T14:47:06;9.40;99.90
21104;DHT22;10710;53.398;-1.514;2024-03-23T14:49:50;9.60;99.90
21104;DHT22;10710;53.398;-1.514;2024-03-23T14:52:35;9.80;99.90
21104;DHT22;10710;53.398;-1.514;2024-03-23T14:55:19;9.70;99.90
